createdAt,value
2019-03-17T00:02:24.785Z,97028.64
2019-03-17T00:04:51.421Z,97016.15
2019-03-17T00:10:03.571Z,97018.89
2019-03-17T00:12:31.564Z,97010.05
2019-03-17T00:15:05.355Z,97019.89
2019-03-17T00:17:26.588Z,97011.63
2019-03-17T00:19:53.203Z,97010.63
2019-03-17T00:22:19.795Z,97008.40
2019-03-17T00:24:46.983Z,97009.58
2019-03-17T00:27:13.733Z,97003.94
2019-03-17T00:29:40.442Z,97009.24
2019-03-17T00:32:07.645Z,97004.60
2019-03-17T00:34:43.641Z,97002.36
2019-03-17T00:37:02.769Z,96998.94
2019-03-17T00:39:29.426Z,96997.20
2019-03-17T00:41:56.003Z,96999.77
2019-03-17T00:44:22.609Z,96989.52
2019-03-17T00:46:49.230Z,96988.48
2019-03-17T00:49:16.156Z,96986.09
2019-03-17T00:51:43.849Z,96983.27
2019-03-17T00:54:10.504Z,96984.41
2019-03-17T00:56:37.193Z,96976.09
2019-03-17T01:01:54.221Z,96977.42
2019-03-17T01:04:20.835Z,96970.44
2019-03-17T01:06:47.561Z,96968.22
2019-03-17T01:09:17.211Z,96967.42
2019-03-17T01:11:43.798Z,96977.33
2019-03-17T01:14:10.432Z,96972.44
2019-03-17T01:16:44.907Z,96965.91
2019-03-17T01:19:11.522Z,96975.70
2019-03-17T01:21:38.137Z,96967.94
2019-03-17T01:24:05.512Z,96962.97
2019-03-17T01:26:32.198Z,96958.39
2019-03-17T01:28:58.785Z,96961.83
2019-03-17T01:31:25.421Z,96950.35
2019-03-17T01:33:52.025Z,96957.98
2019-03-17T01:36:18.620Z,96948.17
2019-03-17T01:38:45.260Z,96942.21
2019-03-17T01:41:11.862Z,96936.73
2019-03-17T01:43:38.567Z,96933.28
2019-03-17T01:46:05.359Z,96928.97
2019-03-17T01:48:32.295Z,96927.75
2019-03-17T01:50:58.935Z,96931.89
2019-03-17T01:53:25.563Z,96931.39
2019-03-17T01:55:52.161Z,96915.33
2019-03-17T01:58:18.799Z,96913.58
2019-03-17T02:00:45.392Z,96913.05
2019-03-17T02:03:11.993Z,96909.84
2019-03-17T02:05:38.660Z,96908.20
2019-03-17T02:08:09.334Z,96908.13
2019-03-17T02:10:42.024Z,96908.13
2019-03-17T02:13:09.609Z,96906.08
2019-03-17T02:15:39.550Z,96900.08
2019-03-17T02:18:14.778Z,96904.11
2019-03-17T02:20:42.648Z,96902.36
2019-03-17T02:23:13.323Z,96901.94
2019-03-17T02:25:39.910Z,96901.49
2019-03-17T02:28:07.572Z,96899.41
2019-03-17T02:30:37.742Z,96902.83
2019-03-17T02:33:08.679Z,96899.38
2019-03-17T02:35:39.265Z,96894.03
2019-03-17T02:38:06.225Z,96891.50
2019-03-17T02:40:35.843Z,96891.25
2019-03-17T02:43:02.163Z,96884.86
2019-03-17T02:48:18.547Z,96882.81
2019-03-17T02:50:45.823Z,96880.86
2019-03-17T02:53:13.442Z,96887.40
2019-03-17T02:55:44.228Z,96878.53
2019-03-17T02:58:13.673Z,96879.55
2019-03-17T03:00:44.650Z,96880.59
2019-03-17T03:03:15.712Z,96879.92
2019-03-17T03:05:54.783Z,96882.92
2019-03-17T03:08:11.580Z,96885.30
2019-03-17T03:10:38.227Z,96887.42
2019-03-17T03:13:08.686Z,96889.00
2019-03-17T03:15:39.263Z,96894.17
2019-03-17T03:18:08.853Z,96889.75
2019-03-17T03:20:37.892Z,96894.59
2019-03-17T03:23:07.451Z,96892.14
2019-03-17T03:25:36.782Z,96890.16
2019-03-17T03:28:03.106Z,96888.36
2019-03-17T03:30:30.995Z,96889.58
2019-03-17T03:32:59.656Z,96891.45
2019-03-17T03:35:28.417Z,96887.78
2019-03-17T03:37:56.702Z,96893.84
2019-03-17T03:40:27.869Z,96894.44
2019-03-17T03:42:55.418Z,96893.47
2019-03-17T03:45:26.498Z,96892.47
2019-03-17T03:47:57.167Z,96894.30
2019-03-17T03:50:23.952Z,96889.50
2019-03-17T03:52:54.847Z,96883.86
2019-03-17T03:55:22.445Z,96885.67
2019-03-17T04:00:39.950Z,96886.00
2019-03-17T04:03:09.595Z,96885.58
2019-03-17T04:05:37.686Z,96888.45
2019-03-17T04:10:49.865Z,96887.95
2019-03-17T04:13:16.464Z,96887.90
2019-03-17T04:15:43.075Z,96881.39
2019-03-17T04:18:09.684Z,96875.86
2019-03-17T04:20:36.311Z,96880.20
2019-03-17T04:23:02.917Z,96874.55
2019-03-17T04:25:29.576Z,96879.34
2019-03-17T04:27:56.155Z,96871.77
2019-03-17T04:30:22.801Z,96868.77
2019-03-17T04:32:49.416Z,96862.99
2019-03-17T04:35:15.991Z,96860.17
2019-03-17T04:37:42.590Z,96866.80
2019-03-17T04:40:09.233Z,96862.27
2019-03-17T04:42:35.803Z,96860.64
2019-03-17T04:45:02.506Z,96857.30
2019-03-17T04:47:29.123Z,96855.77
2019-03-17T04:49:55.699Z,96861.13
2019-03-17T04:52:22.321Z,96859.41
2019-03-17T04:54:48.970Z,96863.02
2019-03-17T04:57:15.591Z,96867.37
2019-03-17T04:59:42.209Z,96861.68
2019-03-17T05:02:21.282Z,96865.33
2019-03-17T05:04:47.870Z,96860.27
2019-03-17T05:07:14.495Z,96865.68
2019-03-17T05:09:41.107Z,96866.25
2019-03-17T05:12:07.722Z,96864.03
2019-03-17T05:14:34.357Z,96866.03
2019-03-17T05:17:00.947Z,96861.02
2019-03-17T05:19:27.855Z,96861.24
2019-03-17T05:21:54.442Z,96860.13
2019-03-17T05:24:21.036Z,96857.23
2019-03-17T05:26:47.655Z,96856.55
2019-03-17T05:29:14.313Z,96855.06
2019-03-17T05:31:40.972Z,96857.17
2019-03-17T05:34:07.556Z,96851.03
2019-03-17T05:36:34.183Z,96852.09
2019-03-17T05:39:00.735Z,96848.41
2019-03-17T05:41:27.325Z,96851.95
2019-03-17T05:46:26.236Z,96851.66
2019-03-17T05:48:52.815Z,96853.88
2019-03-17T05:51:19.953Z,96855.73
2019-03-17T05:53:46.569Z,96858.83
2019-03-17T05:56:13.144Z,96861.28
2019-03-17T05:58:39.770Z,96868.36
2019-03-17T06:01:06.347Z,96868.86
2019-03-17T06:03:32.958Z,96871.81
2019-03-17T06:08:36.035Z,96867.81
2019-03-17T06:11:03.622Z,96860.87
2019-03-17T06:13:30.522Z,96868.70
2019-03-17T06:15:59.802Z,96865.39
2019-03-17T06:18:27.526Z,96863.09
2019-03-17T06:20:55.061Z,96871.19
2019-03-17T06:23:26.095Z,96877.34
2019-03-17T06:26:03.521Z,96883.39
2019-03-17T06:28:30.559Z,96880.06
2019-03-17T06:30:58.197Z,96884.17
2019-03-17T06:33:27.802Z,96886.36
2019-03-17T06:35:55.589Z,96884.02
2019-03-17T06:38:26.521Z,96876.70
2019-03-17T06:40:57.525Z,96874.08
2019-03-17T06:43:26.836Z,96869.55
2019-03-17T06:45:56.405Z,96871.87
2019-03-17T06:48:27.307Z,96867.06
2019-03-17T06:53:56.723Z,96865.30
2019-03-17T06:59:13.481Z,96870.80
2019-03-17T07:01:42.132Z,96863.98
2019-03-17T07:04:13.264Z,96852.91
2019-03-17T07:06:57.687Z,96856.17
2019-03-17T07:09:26.435Z,96861.73
2019-03-17T07:11:54.504Z,96852.03
2019-03-17T07:14:22.639Z,96847.06
2019-03-17T07:16:59.152Z,96852.20
2019-03-17T07:19:22.903Z,96858.56
2019-03-17T07:21:53.796Z,96855.36
2019-03-17T07:24:21.043Z,96853.14
2019-03-17T07:26:51.945Z,96852.04
2019-03-17T07:29:23.858Z,96849.39
2019-03-17T07:31:52.843Z,96842.61
2019-03-17T07:37:05.975Z,96839.42
2019-03-17T07:39:32.633Z,96846.59
2019-03-17T07:41:59.215Z,96839.48
2019-03-17T07:44:26.272Z,96844.11
2019-03-17T07:46:53.896Z,96839.70
2019-03-17T07:49:20.778Z,96841.91
2019-03-17T07:51:48.315Z,96836.89
2019-03-17T07:54:15.957Z,96832.33
2019-03-17T07:56:46.499Z,96836.31
2019-03-17T07:59:14.341Z,96829.86
2019-03-17T08:01:42.075Z,96835.52
2019-03-17T08:04:09.684Z,96835.70
2019-03-17T08:06:38.624Z,96841.42
2019-03-17T08:09:05.019Z,96838.02
2019-03-17T08:11:32.720Z,96840.87
2019-03-17T08:13:59.421Z,96845.11
2019-03-17T08:19:16.970Z,96839.23
2019-03-17T08:21:48.702Z,96837.91
2019-03-17T08:24:17.683Z,96848.13
2019-03-17T08:26:46.662Z,96836.97
2019-03-17T08:29:14.766Z,96837.83
2019-03-17T08:31:46.472Z,96836.06
2019-03-17T08:34:13.388Z,96837.89
2019-03-17T08:36:48.409Z,96841.84
2019-03-17T08:39:14.784Z,96841.98
2019-03-17T08:41:46.257Z,96836.20
2019-03-17T08:44:13.918Z,96834.11
2019-03-17T08:46:47.440Z,96834.87
2019-03-17T08:52:02.974Z,96836.91
2019-03-17T08:54:30.254Z,96838.86
2019-03-17T08:56:56.841Z,96838.86
2019-03-17T08:59:28.553Z,96836.44
2019-03-17T09:01:59.579Z,96827.78
2019-03-17T09:04:31.043Z,96830.95
2019-03-17T09:07:11.475Z,96839.09
2019-03-17T09:10:02.277Z,96828.63
2019-03-17T09:12:33.066Z,96822.80
2019-03-17T09:15:01.573Z,96829.30
2019-03-17T09:17:29.280Z,96825.53
2019-03-17T09:22:57.144Z,96810.89
2019-03-17T09:25:24.886Z,96810.97
2019-03-17T09:30:57.802Z,96809.77
2019-03-17T09:33:28.230Z,96808.64
2019-03-17T09:36:00.262Z,96808.27
2019-03-17T09:41:13.708Z,96801.78
2019-03-17T09:43:42.864Z,96803.25
2019-03-17T09:46:10.815Z,96800.34
2019-03-17T09:48:40.792Z,96794.80
2019-03-17T09:51:11.941Z,96784.44
2019-03-17T09:53:41.176Z,96779.95
2019-03-17T09:56:11.988Z,96771.17
2019-03-17T09:58:38.595Z,96772.58
2019-03-17T10:01:07.172Z,96769.41
2019-03-17T10:03:38.327Z,96769.72
2019-03-17T10:06:08.982Z,96765.45
2019-03-17T10:08:38.441Z,96766.54
2019-03-17T10:13:55.165Z,96767.67
2019-03-17T10:16:21.869Z,96764.47
2019-03-17T10:18:49.584Z,96764.72
2019-03-17T10:21:17.297Z,96764.20
2019-03-17T10:23:47.844Z,96763.92
2019-03-17T10:26:16.698Z,96752.70
2019-03-17T10:28:43.742Z,96747.60
2019-03-17T10:31:10.425Z,96740.38
2019-03-17T10:33:45.541Z,96745.75
2019-03-17T10:36:10.843Z,96736.41
2019-03-17T10:38:38.034Z,96729.59
2019-03-17T10:41:06.746Z,96727.64
2019-03-17T10:43:34.451Z,96735.19
2019-03-17T10:46:04.233Z,96734.45
2019-03-17T10:48:31.667Z,96724.16
2019-03-17T10:50:59.272Z,96724.85
2019-03-17T10:53:26.154Z,96726.82
2019-03-17T10:55:53.729Z,96713.45
2019-03-17T10:58:21.390Z,96714.58
2019-03-17T11:00:52.628Z,96713.00
2019-03-17T11:03:23.508Z,96710.88
2019-03-17T11:05:54.521Z,96710.47
2019-03-17T11:08:20.795Z,96700.30
2019-03-17T11:10:47.786Z,96689.67
2019-03-17T11:13:18.616Z,96699.27
2019-03-17T11:15:45.918Z,96687.38
2019-03-17T11:18:16.792Z,96681.34
2019-03-17T11:20:45.782Z,96675.56
2019-03-17T11:23:15.855Z,96672.48
2019-03-17T11:25:42.941Z,96661.31
2019-03-17T11:28:10.754Z,96653.48
2019-03-17T11:30:38.721Z,96657.03
2019-03-17T11:33:07.857Z,96651.11
2019-03-17T11:35:46.975Z,96648.55
2019-03-17T11:38:15.389Z,96649.20
2019-03-17T11:40:44.731Z,96635.37
2019-03-17T11:43:14.303Z,96630.79
2019-03-17T11:45:44.133Z,96619.41
2019-03-17T11:48:15.175Z,96619.80
2019-03-17T11:50:46.982Z,96617.34
2019-03-17T11:53:17.879Z,96608.08
2019-03-17T11:58:37.574Z,96594.37
2019-03-17T12:01:17.972Z,96585.98
2019-03-17T12:03:46.169Z,96576.56
2019-03-17T12:06:17.308Z,96571.20
2019-03-17T12:08:44.556Z,96571.86
2019-03-17T12:11:14.757Z,96562.09
2019-03-17T12:13:42.036Z,96556.86
2019-03-17T12:16:09.387Z,96549.75
2019-03-17T12:18:36.634Z,96541.66
2019-03-17T12:21:03.921Z,96534.25
2019-03-17T12:23:31.197Z,96527.86
2019-03-17T12:26:03.561Z,96521.80
2019-03-17T12:28:32.148Z,96523.11
2019-03-17T12:31:02.083Z,96511.58
2019-03-17T12:33:32.271Z,96507.48
2019-03-17T12:36:00.677Z,96507.77
2019-03-17T12:38:28.911Z,96503.20
2019-03-17T12:40:58.442Z,96490.80
2019-03-17T12:46:13.042Z,96477.52
2019-03-17T12:48:44.276Z,96475.67
2019-03-17T12:51:12.870Z,96467.51
2019-03-17T12:53:43.960Z,96452.33
2019-03-17T12:56:13.237Z,96457.91
2019-03-17T13:01:29.370Z,96443.13
2019-03-17T13:04:07.816Z,96447.11
2019-03-17T13:06:35.740Z,96443.89
2019-03-17T13:09:07.237Z,96441.09
2019-03-17T13:11:38.523Z,96428.84
2019-03-17T13:14:09.072Z,96434.30
2019-03-17T13:16:36.412Z,96426.98
2019-03-17T13:19:04.601Z,96416.34
2019-03-17T13:24:24.385Z,96405.63
2019-03-17T13:26:56.081Z,96402.39
2019-03-17T13:29:26.309Z,96404.19
2019-03-17T13:31:59.546Z,96400.70
2019-03-17T13:34:29.331Z,96402.13
2019-03-17T13:37:00.820Z,96393.55
2019-03-17T13:42:19.368Z,96393.02
2019-03-17T13:44:49.421Z,96390.08
2019-03-17T13:47:18.258Z,96381.80
2019-03-17T13:49:55.400Z,96378.93
2019-03-17T13:52:27.661Z,96383.79
2019-03-17T13:55:09.897Z,96385.98
2019-03-17T13:57:44.945Z,96374.69
2019-03-17T14:00:10.433Z,96374.52
2019-03-17T14:02:41.805Z,96376.70
2019-03-17T14:05:11.748Z,96377.17
2019-03-17T14:07:40.827Z,96362.09
2019-03-17T14:10:13.881Z,96366.72
2019-03-17T14:12:37.118Z,96353.01
2019-03-17T14:15:04.971Z,96362.36
2019-03-17T14:17:32.190Z,96359.14
2019-03-17T14:19:59.362Z,96362.77
2019-03-17T14:22:26.722Z,96357.87
2019-03-17T14:24:53.966Z,96358.11
2019-03-17T14:27:21.222Z,96354.77
2019-03-17T14:29:48.476Z,96359.22
2019-03-17T14:32:15.732Z,96353.66
2019-03-17T14:34:43.021Z,96351.02
2019-03-17T14:37:10.190Z,96358.75
2019-03-17T14:39:37.498Z,96351.19
2019-03-17T14:42:04.725Z,96345.44
2019-03-17T14:44:31.966Z,96341.47
2019-03-17T14:46:59.278Z,96342.48
2019-03-17T14:49:26.437Z,96337.92
2019-03-17T14:51:53.701Z,96329.47
2019-03-17T14:54:20.995Z,96327.53
2019-03-17T14:56:48.264Z,96320.71
2019-03-17T14:59:15.486Z,96325.48
2019-03-17T15:01:42.789Z,96311.23
2019-03-17T15:04:10.068Z,96319.28
2019-03-17T15:06:37.381Z,96321.06
2019-03-17T15:09:04.608Z,96308.23
2019-03-17T15:11:31.836Z,96315.79
2019-03-17T15:13:59.170Z,96309.59
2019-03-17T15:16:26.462Z,96299.55
2019-03-17T15:18:53.676Z,96299.39
2019-03-17T15:21:21.068Z,96300.84
2019-03-17T15:23:48.369Z,96300.24
2019-03-17T15:26:15.748Z,96298.80
2019-03-17T15:28:43.975Z,96292.26
2019-03-17T15:31:22.369Z,96290.55
2019-03-17T15:33:51.732Z,96291.88
2019-03-17T15:36:18.948Z,96296.55
2019-03-17T15:38:46.196Z,96287.75
2019-03-17T15:41:18.349Z,96295.05
2019-03-17T15:43:42.977Z,96290.34
2019-03-17T15:46:10.259Z,96298.17
2019-03-17T15:48:37.525Z,96296.72
2019-03-17T15:51:04.852Z,96298.45
2019-03-17T15:53:32.157Z,96302.06
2019-03-17T15:55:59.472Z,96303.91
2019-03-17T15:58:26.767Z,96294.66
2019-03-17T16:00:54.066Z,96300.23
2019-03-17T16:03:21.285Z,96294.03
2019-03-17T16:05:49.195Z,96288.16
2019-03-17T16:08:17.945Z,96280.83
2019-03-17T16:10:52.420Z,96269.39
2019-03-17T16:13:19.872Z,96268.59
2019-03-17T16:15:51.051Z,96267.28
2019-03-17T16:18:21.300Z,96269.14
2019-03-17T16:20:53.208Z,96268.09
2019-03-17T16:23:22.500Z,96267.50
2019-03-17T16:25:51.865Z,96263.50
2019-03-17T16:28:22.527Z,96268.29
2019-03-17T16:30:53.191Z,96271.97
2019-03-17T16:33:24.530Z,96272.38
2019-03-17T16:35:54.831Z,96279.15
2019-03-17T16:38:24.189Z,96275.68
2019-03-17T16:40:52.455Z,96267.78
2019-03-17T16:43:20.274Z,96271.82
2019-03-17T16:45:52.946Z,96274.78
2019-03-17T16:48:24.042Z,96278.40
2019-03-17T16:50:55.314Z,96281.45
2019-03-17T16:53:23.553Z,96285.59
2019-03-17T16:55:54.221Z,96277.71
2019-03-17T16:58:23.216Z,96281.93
2019-03-17T17:00:54.143Z,96285.08
2019-03-17T17:03:22.433Z,96291.47
2019-03-17T17:05:50.508Z,96294.25
2019-03-17T17:08:18.759Z,96281.26
2019-03-17T17:11:03.127Z,96291.19
2019-03-17T17:13:31.478Z,96278.86
2019-03-17T17:16:05.033Z,96294.10
2019-03-17T17:21:21.747Z,96288.20
2019-03-17T17:23:51.697Z,96278.33
2019-03-17T17:26:36.406Z,96292.20
2019-03-17T17:28:54.296Z,96295.65
2019-03-17T17:31:25.363Z,96282.00
2019-03-17T17:34:01.269Z,96278.81
2019-03-17T17:36:28.015Z,96300.62
2019-03-17T17:38:59.076Z,96304.66
2019-03-17T17:41:27.380Z,96303.32
2019-03-17T17:43:59.334Z,96310.03
2019-03-17T17:46:27.637Z,96321.20
2019-03-17T17:48:56.573Z,96331.26
2019-03-17T17:53:59.081Z,96325.23
2019-03-17T17:56:29.993Z,96336.69
2019-03-17T17:59:09.618Z,96348.40
2019-03-17T18:01:37.609Z,96349.69
2019-03-17T18:04:05.382Z,96344.41
2019-03-17T18:09:05.672Z,96362.27
2019-03-17T18:11:33.320Z,96350.78
2019-03-17T18:14:00.462Z,96355.98
2019-03-17T18:16:28.149Z,96364.03
2019-03-17T18:18:55.911Z,96358.50
2019-03-17T18:21:23.557Z,96339.39
2019-03-17T18:23:51.258Z,96329.63
2019-03-17T18:26:18.895Z,96326.27
2019-03-17T18:28:46.698Z,96346.60
2019-03-17T18:31:14.312Z,96337.44
2019-03-17T18:33:41.983Z,96347.41
2019-03-17T18:36:09.682Z,96350.42
2019-03-17T18:38:37.428Z,96358.39
2019-03-17T18:41:05.171Z,96361.12
2019-03-17T18:43:32.114Z,96361.41
2019-03-17T18:45:59.797Z,96359.83
2019-03-17T18:48:27.587Z,96381.28
2019-03-17T18:50:55.811Z,96362.20
2019-03-17T18:53:23.447Z,96369.59
2019-03-17T18:55:51.106Z,96367.61
2019-03-17T18:58:18.571Z,96356.80
2019-03-17T19:00:46.196Z,96353.70
2019-03-17T19:03:13.916Z,96353.29
2019-03-17T19:05:41.280Z,96360.58
2019-03-17T19:08:08.951Z,96356.89
2019-03-17T19:10:36.748Z,96362.20
2019-03-17T19:13:04.203Z,96366.50
2019-03-17T19:15:32.975Z,96370.20
2019-03-17T19:18:00.728Z,96364.08
2019-03-17T19:20:28.225Z,96370.18
2019-03-17T19:22:56.051Z,96369.36
2019-03-17T19:25:33.951Z,96369.00
2019-03-17T19:28:02.160Z,96374.16
2019-03-17T19:30:29.884Z,96367.30
2019-03-17T19:32:57.528Z,96379.66
2019-03-17T19:35:24.793Z,96386.89
2019-03-17T19:37:52.433Z,96382.72
2019-03-17T19:40:20.254Z,96385.20
2019-03-17T19:42:58.081Z,96400.73
2019-03-17T19:45:18.196Z,96402.59
2019-03-17T19:47:45.937Z,96414.80
2019-03-17T19:50:13.730Z,96405.78
2019-03-17T19:55:25.116Z,96412.33
2019-03-17T19:57:52.921Z,96412.41
2019-03-17T20:00:20.572Z,96413.36
2019-03-17T20:02:53.584Z,96415.92
2019-03-17T20:05:21.175Z,96417.25
2019-03-17T20:10:34.685Z,96419.41
2019-03-17T20:13:11.560Z,96419.90
2019-03-17T20:15:32.652Z,96418.55
2019-03-17T20:18:03.326Z,96429.16
2019-03-17T20:20:31.146Z,96424.58
2019-03-17T20:22:58.758Z,96429.96
2019-03-17T20:25:28.133Z,96425.97
2019-03-17T20:27:55.774Z,96435.06
2019-03-17T20:33:09.337Z,96431.37
2019-03-17T20:35:36.999Z,96431.84
2019-03-17T20:40:48.165Z,96438.73
2019-03-17T20:43:28.990Z,96440.16
2019-03-17T20:45:44.596Z,96447.34
2019-03-17T20:48:12.161Z,96452.59
2019-03-17T20:50:38.925Z,96452.23
2019-03-17T20:53:11.166Z,96451.66
2019-03-17T20:55:38.323Z,96451.09
2019-03-17T20:58:05.077Z,96442.34
2019-03-17T21:00:31.796Z,96447.77
2019-03-17T21:02:59.005Z,96453.85
2019-03-17T21:05:29.694Z,96451.75
2019-03-17T21:07:57.421Z,96451.44
2019-03-17T21:10:24.874Z,96449.25
2019-03-17T21:12:52.694Z,96451.67
2019-03-17T21:15:20.312Z,96465.89
2019-03-17T21:17:47.844Z,96471.95
2019-03-17T21:20:15.521Z,96477.73
2019-03-17T21:22:42.448Z,96477.23
2019-03-17T21:25:09.470Z,96478.55
2019-03-17T21:27:37.426Z,96482.72
2019-03-17T21:30:04.091Z,96481.45
2019-03-17T21:32:30.727Z,96487.66
2019-03-17T21:34:57.437Z,96489.34
2019-03-17T21:37:25.405Z,96492.85
2019-03-17T21:39:52.843Z,96489.78
2019-03-17T21:42:19.823Z,96495.40
2019-03-17T21:44:46.445Z,96498.27
2019-03-17T21:47:13.261Z,96498.91
2019-03-17T21:49:41.024Z,96488.90
2019-03-17T21:52:08.942Z,96489.17
2019-03-17T21:54:37.435Z,96493.34
2019-03-17T21:57:04.021Z,96496.93
2019-03-17T21:59:31.878Z,96500.22
2019-03-17T22:01:58.652Z,96500.95
2019-03-17T22:07:23.765Z,96511.11
2019-03-17T22:09:50.410Z,96507.58
2019-03-17T22:12:17.045Z,96517.34
2019-03-17T22:14:43.692Z,96517.88
2019-03-17T22:17:10.343Z,96519.41
2019-03-17T22:19:37.240Z,96516.66
2019-03-17T22:22:03.852Z,96515.44
2019-03-17T22:24:30.644Z,96529.18
2019-03-17T22:26:57.258Z,96526.56
2019-03-17T22:29:24.237Z,96526.37
2019-03-17T22:31:50.979Z,96537.14
2019-03-17T22:34:17.635Z,96536.98
2019-03-17T22:36:44.266Z,96531.45
2019-03-17T22:39:11.495Z,96542.90
2019-03-17T22:41:38.303Z,96537.30
2019-03-17T22:44:04.910Z,96541.61
2019-03-17T22:46:31.827Z,96537.22
2019-03-17T22:48:58.471Z,96544.57
2019-03-17T22:51:25.090Z,96551.91
2019-03-17T22:53:51.723Z,96551.48
2019-03-17T22:56:19.605Z,96555.87
2019-03-17T22:58:48.648Z,96558.53
2019-03-17T23:01:19.656Z,96570.59
2019-03-17T23:03:53.509Z,96568.69
2019-03-17T23:09:07.731Z,96583.24
2019-03-17T23:11:37.371Z,96592.88
2019-03-17T23:14:03.970Z,96600.69
2019-03-17T23:16:35.012Z,96596.00
2019-03-17T23:19:04.589Z,96606.56
2019-03-17T23:21:31.283Z,96601.41
2019-03-17T23:23:58.931Z,96610.17
2019-03-17T23:26:28.722Z,96626.40
2019-03-17T23:29:02.005Z,96635.30
2019-03-17T23:31:29.708Z,96647.56
2019-03-17T23:33:59.157Z,96648.48
2019-03-17T23:36:47.604Z,96650.88
2019-03-17T23:39:18.292Z,96654.86
2019-03-17T23:41:49.941Z,96661.88
2019-03-17T23:44:18.039Z,96662.71
2019-03-17T23:46:44.789Z,96670.92
2019-03-17T23:49:11.459Z,96677.91
2019-03-17T23:51:38.361Z,96674.78
2019-03-17T23:54:04.971Z,96671.90
2019-03-17T23:56:31.964Z,96668.07
2019-03-17T23:58:58.814Z,96662.53
